Time;durP1;ratioP1;P1;durP2;ratioP2;P2;SDS_P1;SDS_P2;PMS_P1;PMS_P2;Temp;Humidity;BMP_temperature;BMP_pressure;BME280_temperature;BME280_humidity;BME280_pressure;Samples;Min_cycle;Max_cycle;Signal;HPM_P1;HPM_P2
2023/06/18 00:01:54;;;;;;;;;;;;;;;21.84;47.54;101293.72;5118472;27;19916;-46
2023/06/18 00:04:20;;;;;;;;;;;;;;;21.85;45.80;101290.25;5104824;28;20014;-46
2023/06/18 00:06:45;;;;;;;;;;;;;;;21.77;46.16;101292.94;5104605;27;19920;-48
2023/06/18 00:09:10;;;;;;;;;;;;;;;21.74;46.73;101297.34;5115051;27;19919;-46
2023/06/18 00:11:35;;;;;;;;;;;;;;;21.70;47.03;101301.72;5117169;27;20128;-50
2023/06/18 00:14:01;;;;;;;;;;;;;;;21.67;45.64;101301.78;5110634;27;20266;-48
2023/06/18 00:16:26;;;;;;;;;;;;;;;21.64;47.05;101301.81;5114924;27;19919;-50
2023/06/18 00:18:51;;;;;;;;;;;;;;;21.59;47.96;101301.84;5118224;27;19924;-51
2023/06/18 00:21:17;;;;;;;;;;;;;;;21.54;48.49;101301.03;5113667;27;20014;-50
2023/06/18 00:23:42;;;;;;;;;;;;;;;21.52;47.57;101297.56;5111277;28;20378;-48
2023/06/18 00:26:07;;;;;;;;;;;;;;;21.47;45.72;101299.34;5107395;27;20041;-46
2023/06/18 00:28:32;;;;;;;;;;;;;;;21.44;48.11;101291.56;5118708;27;19963;-48
2023/06/18 00:30:58;;;;;;;;;;;;;;;21.39;48.69;101286.34;5110571;27;19957;-49
2023/06/18 00:33:24;;;;;;;;;;;;;;;21.35;48.68;101289.00;5099023;28;19915;-46
2023/06/18 00:35:56;;;;;;;;;;;;;;;21.32;48.54;101284.69;5103717;28;20382;-49
2023/06/18 00:38:28;;;;;;;;;;;;;;;21.28;48.49;101285.56;5115413;28;19960;-49
2023/06/18 00:40:53;;;;;;;;;;;;;;;21.27;50.18;101280.34;5106106;28;19920;-48
2023/06/18 00:43:19;;;;;;;;;;;;;;;21.25;49.28;101280.38;5114968;28;19923;-50
2023/06/18 00:45:46;;;;;;;;;;;;;;;21.23;48.16;101281.25;5113502;28;19942;-49
2023/06/18 00:48:12;;;;;;;;;;;;;;;21.18;48.53;101270.84;5112237;28;19919;-47
2023/06/18 00:50:38;;;;;;;;;;;;;;;21.14;48.97;101269.13;5117826;28;19915;-50
2023/06/18 00:53:03;;;;;;;;;;;;;;;21.11;50.10;101269.13;5110991;28;20382;-50
2023/06/18 00:55:29;;;;;;;;;;;;;;;21.07;51.06;101262.22;5122189;28;19976;-48
2023/06/18 00:57:59;;;;;;;;;;;;;;;21.02;50.52;101270.09;5110841;28;19916;-49
2023/06/18 01:00:25;;;;;;;;;;;;;;;20.97;49.94;101271.88;5106610;28;19990;-48
2023/06/18 01:02:53;;;;;;;;;;;;;;;20.92;48.70;101263.22;5095136;28;19912;-50
2023/06/18 01:05:20;;;;;;;;;;;;;;;20.88;50.17;101262.38;5103571;28;20350;-49
2023/06/18 01:07:48;;;;;;;;;;;;;;;20.86;50.00;101260.66;5111045;28;20345;-46
2023/06/18 01:10:14;;;;;;;;;;;;;;;20.82;50.46;101257.19;5106749;28;20332;-48
2023/06/18 01:12:39;;;;;;;;;;;;;;;20.77;50.91;101260.72;5104202;28;19980;-51
2023/06/18 01:15:05;;;;;;;;;;;;;;;20.74;49.60;101264.22;5110194;28;19915;-49
2023/06/18 01:17:35;;;;;;;;;;;;;;;20.70;50.63;101257.31;5113518;28;19927;-47
2023/06/18 01:20:08;;;;;;;;;;;;;;;20.65;50.61;101259.06;5104437;28;19955;-48
2023/06/18 01:22:34;;;;;;;;;;;;;;;20.61;51.39;101259.97;5098716;28;19923;-51
2023/06/18 01:25:02;;;;;;;;;;;;;;;20.57;50.90;101258.28;5096591;28;19912;-48
2023/06/18 01:27:31;;;;;;;;;;;;;;;20.52;51.25;101257.44;5100373;28;19916;-50
2023/06/18 01:29:57;;;;;;;;;;;;;;;20.48;52.99;101251.34;5109266;28;19955;-56
2023/06/18 01:32:22;;;;;;;;;;;;;;;20.46;51.93;101249.63;5119302;28;19958;-56
2023/06/18 01:34:47;;;;;;;;;;;;;;;20.44;51.76;101256.56;5087058;28;20611;-55
2023/06/18 01:37:33;;;;;;;;;;;;;;;20.41;51.17;101257.47;5119755;27;19916;-56
2023/06/18 01:40:09;;;;;;;;;;;;;;;20.38;50.85;101253.97;5113860;27;19958;-57
2023/06/18 01:42:36;;;;;;;;;;;;;;;20.34;52.08;101250.53;5110758;28;19912;-57
2023/06/18 01:45:18;;;;;;;;;;;;;;;20.30;54.16;101252.28;5114554;27;19920;-57
2023/06/18 01:47:45;;;;;;;;;;;;;;;20.23;53.05;101253.22;5107888;27;19916;-56
2023/06/18 01:50:11;;;;;;;;;;;;;;;20.18;54.12;101239.31;5117311;27;19912;-57
2023/06/18 01:52:39;;;;;;;;;;;;;;;20.13;52.18;101245.44;5119246;27;19911;-57
2023/06/18 01:55:05;;;;;;;;;;;;;;;20.07;53.47;101238.50;5119332;27;19923;-56
2023/06/18 01:57:33;;;;;;;;;;;;;;;20.03;52.83;101236.78;5117676;27;20296;-56
2023/06/18 01:59:59;;;;;;;;;;;;;;;19.99;54.08;101250.72;5114419;27;19915;-57
2023/06/18 02:02:24;;;;;;;;;;;;;;;19.93;53.80;101233.34;5114250;27;19911;-56
2023/06/18 02:04:50;;;;;;;;;;;;;;;19.89;54.61;101236.81;5103977;28;19931;-56
2023/06/18 02:07:15;;;;;;;;;;;;;;;19.84;54.54;101230.78;5107705;28;19923;-57
2023/06/18 02:09:40;;;;;;;;;;;;;;;19.80;54.93;101235.13;5106688;28;20079;-46
2023/06/18 02:12:06;;;;;;;;;;;;;;;19.75;55.28;101236.91;5109735;27;19915;-50
2023/06/18 02:14:31;;;;;;;;;;;;;;;19.71;55.83;101229.06;5107089;28;19966;-58
2023/06/18 02:16:57;;;;;;;;;;;;;;;19.66;56.35;101226.50;5110548;28;20291;-57
2023/06/18 02:19:22;;;;;;;;;;;;;;;19.62;55.73;101218.69;5092066;28;19915;-56
2023/06/18 02:21:48;;;;;;;;;;;;;;;19.59;54.91;101226.50;5112170;28;19955;-57
2023/06/18 02:24:15;;;;;;;;;;;;;;;19.56;55.10;101227.38;5112285;27;19916;-56
2023/06/18 02:26:40;;;;;;;;;;;;;;;19.54;54.54;101218.69;5110909;28;20010;-56
2023/06/18 02:29:05;;;;;;;;;;;;;;;19.51;56.06;101216.94;5109269;28;19962;-56
2023/06/18 02:31:31;;;;;;;;;;;;;;;19.50;55.78;101219.56;5117267;27;20411;-57
2023/06/18 02:33:57;;;;;;;;;;;;;;;19.48;56.35;101226.53;5116177;27;20323;-57
2023/06/18 02:36:22;;;;;;;;;;;;;;;19.45;55.11;101223.91;5106313;28;19991;-57
2023/06/18 02:38:48;;;;;;;;;;;;;;;19.44;55.65;101224.78;5112332;27;19924;-56
2023/06/18 02:41:13;;;;;;;;;;;;;;;19.40;54.11;101225.66;5116159;27;19912;-57
2023/06/18 02:43:39;;;;;;;;;;;;;;;19.37;56.26;101225.69;5126202;27;19991;-56
2023/06/18 02:46:04;;;;;;;;;;;;;;;19.33;56.49;101217.00;5119994;27;20301;-58
2023/06/18 02:48:30;;;;;;;;;;;;;;;19.29;55.79;101213.53;5107661;28;19915;-57
2023/06/18 02:50:55;;;;;;;;;;;;;;;19.26;55.81;101210.94;5115720;27;20281;-56
2023/06/18 02:53:20;;;;;;;;;;;;;;;19.26;55.74;101216.13;5111842;27;20289;-57
2023/06/18 02:55:46;;;;;;;;;;;;;;;19.25;54.88;101219.63;5120811;27;20382;-57
2023/06/18 02:58:19;;;;;;;;;;;;;;;19.20;56.99;101223.97;5109505;27;19920;-56
2023/06/18 03:00:44;;;;;;;;;;;;;;;19.16;57.46;101211.81;5090465;28;20294;-56
2023/06/18 03:03:10;;;;;;;;;;;;;;;19.12;58.07;101214.44;5110750;27;19926;-57
2023/06/18 03:05:35;;;;;;;;;;;;;;;19.11;58.82;101217.91;5105469;28;19949;-56
2023/06/18 03:08:00;;;;;;;;;;;;;;;19.07;57.67;101214.44;5104900;28;20036;-57
2023/06/18 03:10:26;;;;;;;;;;;;;;;19.05;57.91;101216.19;5112941;27;19915;-56
2023/06/18 03:12:51;;;;;;;;;;;;;;;19.04;56.39;101219.66;5110580;27;19931;-57
2023/06/18 03:15:16;;;;;;;;;;;;;;;19.00;57.78;101216.19;5111583;27;20393;-57
2023/06/18 03:17:42;;;;;;;;;;;;;;;18.99;57.88;101218.81;5109647;28;20275;-56
2023/06/18 03:20:09;;;;;;;;;;;;;;;18.96;57.36;101221.41;5096329;27;19960;-57
2023/06/18 03:22:34;;;;;;;;;;;;;;;18.95;56.24;101227.47;5111591;27;19942;-56
2023/06/18 03:25:00;;;;;;;;;;;;;;;18.93;56.72;101216.19;5090082;28;20370;-50
2023/06/18 03:27:25;;;;;;;;;;;;;;;18.89;59.18;101220.53;5113253;27;19920;-49
2023/06/18 03:29:51;;;;;;;;;;;;;;;18.91;58.46;101225.75;5112352;27;20709;-50
2023/06/18 03:32:16;;;;;;;;;;;;;;;18.87;58.82;101218.78;5115335;27;19916;-49
2023/06/18 03:34:42;;;;;;;;;;;;;;;18.87;59.49;101230.09;5113623;27;19973;-47
2023/06/18 03:37:08;;;;;;;;;;;;;;;18.85;58.44;101217.94;5097105;28;19923;-47
2023/06/18 03:39:33;;;;;;;;;;;;;;;18.84;58.22;101224.00;5115081;27;19915;-48
2023/06/18 03:41:59;;;;;;;;;;;;;;;18.83;58.66;101227.50;5115725;27;20010;-48
2023/06/18 03:44:24;;;;;;;;;;;;;;;18.82;59.30;101223.16;5106319;28;19938;-50
2023/06/18 03:46:49;;;;;;;;;;;;;;;18.82;58.22;101225.75;5111913;28;19994;-47
2023/06/18 03:49:15;;;;;;;;;;;;;;;18.82;59.84;101226.63;5117842;27;19965;-47
2023/06/18 03:51:40;;;;;;;;;;;;;;;18.80;59.78;101225.72;5116046;27;19923;-47
2023/06/18 03:54:06;;;;;;;;;;;;;;;18.82;60.40;101225.75;5096208;28;19924;-46
2023/06/18 03:56:31;;;;;;;;;;;;;;;18.82;60.22;101230.97;5109248;27;19923;-50
2023/06/18 03:58:57;;;;;;;;;;;;;;;18.83;61.32;101233.56;5100424;28;19919;-47
2023/06/18 04:01:23;;;;;;;;;;;;;;;18.83;60.07;101238.78;5096037;28;20152;-48
2023/06/18 04:03:48;;;;;;;;;;;;;;;18.86;60.01;101248.31;5114270;27;19900;-49
2023/06/18 04:06:13;;;;;;;;;;;;;;;18.88;60.24;101244.00;5113219;27;20408;-50
2023/06/18 04:08:40;;;;;;;;;;;;;;;18.91;60.15;101254.41;5106967;28;19920;-49
2023/06/18 04:11:06;;;;;;;;;;;;;;;18.91;59.77;101247.44;5119582;27;19919;-48
2023/06/18 04:13:31;;;;;;;;;;;;;;;18.95;59.62;101253.53;5110957;28;19924;-48
2023/06/18 04:15:57;;;;;;;;;;;;;;;18.98;59.91;101253.53;5099083;28;20301;-48
2023/06/18 04:18:24;;;;;;;;;;;;;;;18.98;57.89;101248.31;5085457;28;19915;-48
2023/06/18 04:20:50;;;;;;;;;;;;;;;19.01;57.89;101245.72;5111846;27;20366;-49
2023/06/18 04:23:15;;;;;;;;;;;;;;;19.09;56.89;101241.34;5114835;27;19938;-48
2023/06/18 04:25:40;;;;;;;;;;;;;;;19.16;57.03;101239.63;5116623;27;20446;-45
2023/06/18 04:28:05;;;;;;;;;;;;;;;19.23;58.61;101246.56;5117849;27;20247;-50
2023/06/18 04:30:31;;;;;;;;;;;;;;;19.30;57.29;101248.31;5104242;28;19928;-48
2023/06/18 04:32:56;;;;;;;;;;;;;;;19.33;58.92;101244.81;5100959;28;19916;-48
2023/06/18 04:35:21;;;;;;;;;;;;;;;19.32;57.74;101243.94;5119719;27;19930;-50
2023/06/18 04:37:47;;;;;;;;;;;;;;;19.27;57.39;101236.13;5117110;28;20329;-50
2023/06/18 04:40:12;;;;;;;;;;;;;;;19.24;59.19;101246.56;5112494;28;19983;-50
2023/06/18 04:42:37;;;;;;;;;;;;;;;19.19;57.00;101242.22;5115720;28;19916;-46
2023/06/18 04:45:03;;;;;;;;;;;;;;;19.17;58.16;101237.03;5115740;28;19960;-50
2023/06/18 04:47:29;;;;;;;;;;;;;;;19.18;58.07;101238.75;5114636;28;19912;-50
2023/06/18 04:49:54;;;;;;;;;;;;;;;19.28;58.04;101244.81;5112129;28;19911;-50
2023/06/18 04:52:19;;;;;;;;;;;;;;;19.40;57.03;101243.91;5113604;28;19954;-53
2023/06/18 04:54:44;;;;;;;;;;;;;;;19.47;56.83;101236.06;5109994;28;19923;-50
2023/06/18 04:57:10;;;;;;;;;;;;;;;19.55;56.35;101233.47;5117360;28;20367;-49
2023/06/18 04:59:36;;;;;;;;;;;;;;;19.60;56.51;101229.13;5110157;28;19947;-49
2023/06/18 05:02:03;;;;;;;;;;;;;;;19.67;56.68;101230.84;5112352;28;20377;-46
2023/06/18 05:04:28;;;;;;;;;;;;;;;19.78;56.20;101234.28;5114691;28;19984;-46
2023/06/18 05:06:53;;;;;;;;;;;;;;;19.87;56.33;101229.91;5106163;28;20007;-47
2023/06/18 05:09:19;;;;;;;;;;;;;;;19.94;55.25;101236.81;5111465;28;19919;-48
2023/06/18 05:11:44;;;;;;;;;;;;;;;20.01;55.67;101233.28;5093174;28;19924;-46
2023/06/18 05:14:10;;;;;;;;;;;;;;;20.09;55.36;101236.75;5116302;27;19923;-46
2023/06/18 05:16:35;;;;;;;;;;;;;;;20.22;54.70;101235.81;5109993;27;20336;-49
2023/06/18 05:19:00;;;;;;;;;;;;;;;20.37;54.00;101232.22;5113919;27;19923;-49
2023/06/18 05:21:25;;;;;;;;;;;;;;;20.51;53.83;101229.56;5118487;27;19919;-48
2023/06/18 05:23:50;;;;;;;;;;;;;;;20.65;53.43;101239.91;5117771;27;19920;-50
2023/06/18 05:26:16;;;;;;;;;;;;;;;20.81;53.02;101245.03;5095027;28;20003;-46
2023/06/18 05:28:41;;;;;;;;;;;;;;;21.00;52.82;101243.13;5111931;28;19959;-45
2023/06/18 05:31:06;;;;;;;;;;;;;;;21.15;52.19;101244.72;5121817;27;19916;-47
2023/06/18 05:33:31;;;;;;;;;;;;;;;21.37;51.80;101256.75;5122638;27;19920;-48
2023/06/18 05:35:57;;;;;;;;;;;;;;;21.59;51.22;101252.13;5116919;27;19931;-48
2023/06/18 05:38:23;;;;;;;;;;;;;;;21.78;50.83;101255.41;5114361;27;19931;-48
2023/06/18 05:40:48;;;;;;;;;;;;;;;22.03;50.23;101258.59;5109323;27;19927;-47
2023/06/18 05:43:14;;;;;;;;;;;;;;;22.33;49.84;101259.09;5111693;28;20006;-45
2023/06/18 05:45:40;;;;;;;;;;;;;;;22.64;49.29;101264.75;5108488;28;20396;-47
2023/06/18 05:48:08;;;;;;;;;;;;;;;22.86;48.24;101262.63;5106542;28;20160;-48
2023/06/18 05:50:33;;;;;;;;;;;;;;;23.07;47.90;101264.09;5088826;28;20270;-48
2023/06/18 05:52:58;;;;;;;;;;;;;;;23.24;46.49;101255.03;5103774;28;19927;-46
2023/06/18 05:55:23;;;;;;;;;;;;;;;23.39;46.89;101258.25;5122770;27;19919;-49
2023/06/18 05:57:50;;;;;;;;;;;;;;;23.45;45.69;101253.75;5119547;27;19919;-47
2023/06/18 06:00:16;;;;;;;;;;;;;;;23.39;45.58;101250.38;5121626;27;19922;-47
2023/06/18 06:02:41;;;;;;;;;;;;;;;23.38;45.28;101251.28;5117371;27;19916;-47
2023/06/18 06:05:06;;;;;;;;;;;;;;;23.27;45.84;101252.34;5118931;27;19931;-48
2023/06/18 06:07:32;;;;;;;;;;;;;;;23.20;45.24;101255.09;5111666;28;19927;-47
2023/06/18 06:09:57;;;;;;;;;;;;;;;23.19;45.61;101259.50;5122534;27;20428;-50
2023/06/18 06:12:22;;;;;;;;;;;;;;;23.25;46.65;101261.13;5128224;27;19904;-48
2023/06/18 06:14:47;;;;;;;;;;;;;;;23.30;45.66;101259.31;5125931;27;19945;-46
2023/06/18 06:17:13;;;;;;;;;;;;;;;23.39;45.78;101255.63;5104439;27;20005;-49
2023/06/18 06:19:38;;;;;;;;;;;;;;;23.53;46.26;101264.97;5111355;28;19915;-50
2023/06/18 06:22:04;;;;;;;;;;;;;;;23.56;45.46;101269.31;5119840;27;20373;-47
2023/06/18 06:24:29;;;;;;;;;;;;;;;23.65;45.41;101265.66;5117291;27;19920;-48
2023/06/18 06:26:55;;;;;;;;;;;;;;;23.67;44.28;101263.88;5107590;28;19931;-49
2023/06/18 06:29:20;;;;;;;;;;;;;;;23.75;43.53;101264.59;5107544;27;20886;-51
2023/06/18 06:31:45;;;;;;;;;;;;;;;23.75;44.44;101265.44;5107071;27;19923;-50
2023/06/18 06:34:11;;;;;;;;;;;;;;;23.76;45.36;101274.19;5104234;27;20283;-49
2023/06/18 06:36:38;;;;;;;;;;;;;;;23.71;43.96;101271.66;5112453;27;20366;-49
2023/06/18 06:39:03;;;;;;;;;;;;;;;23.71;44.71;101265.53;5104150;27;19959;-49
2023/06/18 06:41:29;;;;;;;;;;;;;;;23.67;44.82;101269.13;5117164;27;19988;-50
2023/06/18 06:43:54;;;;;;;;;;;;;;;23.62;45.22;101279.72;5115471;27;19916;-46
2023/06/18 06:46:19;;;;;;;;;;;;;;;23.57;44.92;101297.28;5114084;27;20014;-49
2023/06/18 06:48:45;;;;;;;;;;;;;;;23.53;45.29;101353.34;5090945;28;19924;-48
2023/06/18 06:51:10;;;;;;;;;;;;;;;23.33;45.64;101329.22;5113682;27;19959;-47
2023/06/18 06:53:35;;;;;;;;;;;;;;;22.93;46.23;101317.63;5111038;27;19915;-50
2023/06/18 06:56:00;;;;;;;;;;;;;;;22.72;47.00;101312.69;5118457;27;19994;-50
2023/06/18 06:58:26;;;;;;;;;;;;;;;22.65;47.30;101303.19;5127716;27;20335;-47
2023/06/18 07:00:51;;;;;;;;;;;;;;;22.65;47.37;101313.66;5119727;27;19920;-50
2023/06/18 07:03:16;;;;;;;;;;;;;;;22.66;46.53;101321.50;5119901;27;19922;-56
2023/06/18 07:05:41;;;;;;;;;;;;;;;22.65;46.84;101318.91;5118062;27;20467;-57
2023/06/18 07:08:07;;;;;;;;;;;;;;;22.66;46.91;101318.88;5121242;27;19916;-56
2023/06/18 07:10:33;;;;;;;;;;;;;;;22.69;47.09;101323.19;5116420;27;19930;-56
2023/06/18 07:12:59;;;;;;;;;;;;;;;22.66;46.90;101318.88;5122294;27;19994;-56
2023/06/18 07:15:24;;;;;;;;;;;;;;;22.71;47.26;101326.69;5100428;27;20030;-57
2023/06/18 07:17:49;;;;;;;;;;;;;;;22.81;46.82;101322.16;5106683;28;19966;-57
2023/06/18 07:20:14;;;;;;;;;;;;;;;22.87;46.74;101322.97;5116116;27;21095;-55
2023/06/18 07:22:40;;;;;;;;;;;;;;;22.90;46.32;101319.44;5118203;27;19994;-57
2023/06/18 07:25:06;;;;;;;;;;;;;;;22.93;46.52;101316.75;5122251;27;19916;-56
2023/06/18 07:27:33;;;;;;;;;;;;;;;23.05;46.24;101320.94;5117342;27;19972;-56
2023/06/18 07:29:58;;;;;;;;;;;;;;;23.17;45.26;101326.84;5120019;27;19912;-59
2023/06/18 07:32:24;;;;;;;;;;;;;;;23.19;45.23;101319.81;5116983;27;20035;-56
2023/06/18 07:34:49;;;;;;;;;;;;;;;23.31;44.46;101323.13;5110284;27;19926;-57
2023/06/18 07:37:15;;;;;;;;;;;;;;;23.28;44.71;101313.53;5110007;27;19962;-56
2023/06/18 07:39:40;;;;;;;;;;;;;;;23.33;44.86;101318.72;5121176;27;19912;-57
2023/06/18 07:42:05;;;;;;;;;;;;;;;23.43;44.87;101308.03;5115743;27;20361;-56
2023/06/18 07:44:31;;;;;;;;;;;;;;;23.62;44.78;101308.59;5111838;27;19915;-56
2023/06/18 07:46:56;;;;;;;;;;;;;;;23.91;44.60;101312.44;5111263;27;19927;-56
2023/06/18 07:49:21;;;;;;;;;;;;;;;24.07;43.61;101314.69;5113476;27;19967;-56
2023/06/18 07:51:47;;;;;;;;;;;;;;;24.13;43.77;101310.22;5115444;27;19915;-57
2023/06/18 07:54:12;;;;;;;;;;;;;;;24.19;43.73;101310.94;5113441;27;20030;-56
2023/06/18 07:56:38;;;;;;;;;;;;;;;24.29;43.73;101309.84;5112997;27;19922;-57
2023/06/18 07:59:03;;;;;;;;;;;;;;;24.34;44.14;101309.78;5116755;27;20377;-57
2023/06/18 08:01:28;;;;;;;;;;;;;;;24.39;44.00;101307.03;5111530;28;20010;-57
2023/06/18 08:03:53;;;;;;;;;;;;;;;24.47;43.42;101295.47;5118347;27;19916;-56
2023/06/18 08:06:19;;;;;;;;;;;;;;;24.64;43.44;101302.97;5097613;28;20382;-56
2023/06/18 08:08:47;;;;;;;;;;;;;;;24.84;43.06;101298.09;5104409;28;19942;-57
2023/06/18 08:11:12;;;;;;;;;;;;;;;24.79;42.98;101293.84;5118154;27;19966;-56
2023/06/18 08:13:37;;;;;;;;;;;;;;;24.81;43.09;101294.66;5118036;27;19951;-56
2023/06/18 08:16:03;;;;;;;;;;;;;;;24.83;43.42;101293.75;5108030;27;19920;-56
2023/06/18 08:18:28;;;;;;;;;;;;;;;24.97;43.08;101298.66;5118936;27;19923;-56
2023/06/18 08:20:55;;;;;;;;;;;;;;;25.11;43.18;101293.09;5119570;27;19924;-57
2023/06/18 08:23:20;;;;;;;;;;;;;;;25.36;42.60;101288.94;5116856;27;19916;-57
2023/06/18 08:25:45;;;;;;;;;;;;;;;25.62;42.57;101290.84;5112369;27;20271;-57
2023/06/18 08:28:11;;;;;;;;;;;;;;;25.88;42.08;101289.28;5117707;27;19919;-57
2023/06/18 08:30:36;;;;;;;;;;;;;;;26.04;42.15;101285.31;5108433;27;19919;-56
2023/06/18 08:33:01;;;;;;;;;;;;;;;26.19;41.35;101284.84;5112153;27;20389;-56
2023/06/18 08:35:27;;;;;;;;;;;;;;;26.09;41.53;101288.69;5113314;28;20061;-57
2023/06/18 08:37:52;;;;;;;;;;;;;;;26.04;41.76;101290.56;5120619;27;19930;-57
2023/06/18 08:40:20;;;;;;;;;;;;;;;26.01;42.01;101282.75;5089427;28;19927;-49
2023/06/18 08:42:45;;;;;;;;;;;;;;;25.98;42.44;101290.75;5102164;28;19912;-48
2023/06/18 08:45:11;;;;;;;;;;;;;;;25.97;42.56;101281.13;5100426;28;19912;-46
2023/06/18 08:47:39;;;;;;;;;;;;;;;25.96;42.72;101289.06;5116060;27;19934;-48
2023/06/18 08:50:05;;;;;;;;;;;;;;;25.91;43.20;101273.41;5117285;27;20373;-50
2023/06/18 08:52:30;;;;;;;;;;;;;;;25.81;42.97;101279.84;5105751;28;20030;-50
2023/06/18 08:54:58;;;;;;;;;;;;;;;25.66;43.36;101278.44;5120407;27;19916;-48
2023/06/18 08:57:30;;;;;;;;;;;;;;;25.67;43.74;101283.69;5124549;27;19971;-48
2023/06/18 08:59:57;;;;;;;;;;;;;;;25.66;44.25;101287.25;5116762;27;20319;-48
2023/06/18 09:02:24;;;;;;;;;;;;;;;25.68;44.56;101284.56;5120689;27;19915;-49
2023/06/18 09:04:49;;;;;;;;;;;;;;;25.76;43.81;101285.22;5115668;27;20014;-48
2023/06/18 09:07:15;;;;;;;;;;;;;;;25.77;44.59;101288.72;5120508;27;20023;-50
2023/06/18 09:09:40;;;;;;;;;;;;;;;25.72;43.99;101280.91;5120096;27;20010;-47
2023/06/18 09:12:06;;;;;;;;;;;;;;;25.67;44.27;101285.47;5114786;27;19939;-49
2023/06/18 09:14:31;;;;;;;;;;;;;;;25.63;44.29;101286.44;5104929;28;19920;-50
2023/06/18 09:16:57;;;;;;;;;;;;;;;25.53;44.85;101280.56;5114772;27;20381;-51
2023/06/18 09:19:23;;;;;;;;;;;;;;;25.48;44.69;101289.47;5114683;27;20158;-46
2023/06/18 09:21:48;;;;;;;;;;;;;;;25.39;45.12;101290.59;5112353;27;20021;-45
2023/06/18 09:24:21;;;;;;;;;;;;;;;25.30;45.31;101294.38;5115928;27;20406;-49
2023/06/18 09:27:02;;;;;;;;;;;;;;;25.26;45.68;101294.47;5114957;27;19912;-49
2023/06/18 09:29:29;;;;;;;;;;;;;;;25.24;45.83;101293.63;5111371;28;20549;-48
2023/06/18 09:31:54;;;;;;;;;;;;;;;25.15;46.27;101292.13;5098254;28;19923;-49
2023/06/18 09:34:20;;;;;;;;;;;;;;;25.18;45.80;101285.91;5118647;27;19927;-46
2023/06/18 09:36:46;;;;;;;;;;;;;;;25.16;45.81;101291.19;5127486;27;20002;-47
2023/06/18 09:39:14;;;;;;;;;;;;;;;25.07;46.30;101294.09;5120741;27;19915;-49
2023/06/18 09:41:40;;;;;;;;;;;;;;;24.97;46.98;101290.78;5121624;27;20377;-47
2023/06/18 09:44:07;;;;;;;;;;;;;;;24.88;47.28;101291.88;5120886;27;19923;-46
2023/06/18 09:46:32;;;;;;;;;;;;;;;24.91;46.50;101287.44;5120325;27;20400;-47
2023/06/18 09:48:57;;;;;;;;;;;;;;;24.90;46.89;101294.47;5114198;27;19916;-49
2023/06/18 09:51:25;;;;;;;;;;;;;;;24.92;46.88;101291.78;5121331;27;19923;-49
2023/06/18 09:53:57;;;;;;;;;;;;;;;24.94;48.59;101290.00;5120843;27;19990;-49
2023/06/18 09:56:22;;;;;;;;;;;;;;;24.93;46.86;101288.25;5113179;28;19912;-49
2023/06/18 09:58:48;;;;;;;;;;;;;;;24.86;48.01;101293.66;5117308;27;20460;-48
2023/06/18 10:01:13;;;;;;;;;;;;;;;24.85;47.59;101291.06;5115388;27;19919;-47
2023/06/18 10:03:39;;;;;;;;;;;;;;;24.84;47.76;101297.25;5096068;27;19947;-50
2023/06/18 10:06:08;;;;;;;;;;;;;;;24.87;48.32;101284.91;5109871;27;19920;-49
2023/06/18 10:08:34;;;;;;;;;;;;;;;24.83;49.77;101291.13;5122101;27;20369;-46
2023/06/18 10:11:00;;;;;;;;;;;;;;;24.80;49.01;101295.56;5122316;27;20555;-49
2023/06/18 10:13:25;;;;;;;;;;;;;;;24.72;49.56;101297.53;5115500;27;20024;-48
2023/06/18 10:15:51;;;;;;;;;;;;;;;24.68;51.16;101287.97;5118001;27;20801;-47
2023/06/18 10:18:22;;;;;;;;;;;;;;;24.72;51.89;101287.88;5113184;27;19916;-44
2023/06/18 10:20:48;;;;;;;;;;;;;;;24.80;52.67;101283.28;5114991;27;20374;-48
2023/06/18 10:23:13;;;;;;;;;;;;;;;24.82;50.69;101273.63;5115745;27;19922;-55
2023/06/18 10:25:39;;;;;;;;;;;;;;;24.73;50.69;101275.59;5110660;28;20117;-56
2023/06/18 10:28:04;;;;;;;;;;;;;;;24.63;52.49;101267.03;5114087;27;19992;-56
2023/06/18 10:30:30;;;;;;;;;;;;;;;24.63;51.77;101264.41;5117055;27;20007;-55
2023/06/18 10:32:55;;;;;;;;;;;;;;;24.69;50.71;101263.41;5116077;27;19950;-55
2023/06/18 10:35:21;;;;;;;;;;;;;;;24.65;52.73;101262.63;5113484;28;19919;-56
2023/06/18 10:37:46;;;;;;;;;;;;;;;24.59;50.71;101254.91;5090479;28;19927;-55
2023/06/18 10:40:12;;;;;;;;;;;;;;;24.60;51.45;101254.00;5120833;27;19923;-56
2023/06/18 10:42:37;;;;;;;;;;;;;;;24.45;49.89;101243.81;5123299;27;19915;-55
2023/06/18 10:45:10;;;;;;;;;;;;;;;24.34;51.24;101244.09;5107634;28;20371;-55
2023/06/18 10:47:36;;;;;;;;;;;;;;;24.32;50.94;101243.22;5082050;28;20427;-57
2023/06/18 10:50:07;;;;;;;;;;;;;;;24.36;51.99;101234.41;5112124;28;19916;-56
2023/06/18 10:52:36;;;;;;;;;;;;;;;24.40;51.02;101225.56;5105509;28;19916;-55
2023/06/18 10:55:06;;;;;;;;;;;;;;;24.36;52.28;101226.50;5116115;27;19922;-56
2023/06/18 10:57:34;;;;;;;;;;;;;;;24.39;51.64;101215.03;5107477;27;19911;-56
2023/06/18 11:00:12;;;;;;;;;;;;;;;24.40;53.34;101220.28;5118045;27;19912;-55
2023/06/18 11:02:37;;;;;;;;;;;;;;;24.43;53.66;101214.94;5119265;27;20438;-56
2023/06/18 11:05:03;;;;;;;;;;;;;;;24.51;53.39;101226.16;5119824;27;19935;-56
2023/06/18 11:07:28;;;;;;;;;;;;;;;24.51;53.32;101227.91;5106475;27;19945;-56
2023/06/18 11:09:58;;;;;;;;;;;;;;;24.65;52.41;101232.84;5102386;28;19920;-56
2023/06/18 11:12:30;;;;;;;;;;;;;;;24.77;51.64;101237.81;5114224;27;19968;-57
2023/06/18 11:15:11;;;;;;;;;;;;;;;24.76;51.74;101236.09;5113308;27;19924;-56
2023/06/18 11:17:37;;;;;;;;;;;;;;;24.88;50.80;101235.78;5113968;27;19916;-57
2023/06/18 11:20:03;;;;;;;;;;;;;;;25.04;50.07;101229.19;5105393;27;20488;-57
2023/06/18 11:22:29;;;;;;;;;;;;;;;25.24;50.70;101225.19;5115292;27;19962;-57
2023/06/18 11:24:56;;;;;;;;;;;;;;;25.36;50.65;101224.88;5119148;27;19951;-48
2023/06/18 11:27:24;;;;;;;;;;;;;;;25.40;50.56;101223.88;5116996;27;20011;-50
2023/06/18 11:29:49;;;;;;;;;;;;;;;25.35;50.89;101224.00;5111309;27;19942;-45
2023/06/18 11:32:14;;;;;;;;;;;;;;;25.35;50.25;101218.75;5118873;27;20531;-48
2023/06/18 11:34:41;;;;;;;;;;;;;;;25.27;50.05;101206.72;5111616;27;19941;-47
2023/06/18 11:37:06;;;;;;;;;;;;;;;25.21;50.79;101205.09;5112371;28;19916;-48
2023/06/18 11:39:33;;;;;;;;;;;;;;;25.12;50.73;101208.88;5115852;27;20271;-45
2023/06/18 11:42:11;;;;;;;;;;;;;;;25.08;51.71;101204.56;5115042;27;19912;-48
2023/06/18 11:44:47;;;;;;;;;;;;;;;25.17;50.13;101197.31;5111267;27;19915;-47
2023/06/18 11:47:12;;;;;;;;;;;;;;;25.03;50.71;101203.78;5121059;27;19940;-48
2023/06/18 11:49:40;;;;;;;;;;;;;;;24.92;52.02;101192.69;5111374;27;20048;-46
2023/06/18 11:52:06;;;;;;;;;;;;;;;24.89;51.75;101195.41;5092093;28;20441;-46
2023/06/18 11:54:34;;;;;;;;;;;;;;;24.91;52.50;101190.97;5115413;27;19978;-45
2023/06/18 11:57:03;;;;;;;;;;;;;;;24.93;52.68;101189.16;5108492;27;20296;-47
2023/06/18 11:59:28;;;;;;;;;;;;;;;24.92;54.75;101192.69;5119993;27;19947;-46
2023/06/18 12:01:54;;;;;;;;;;;;;;;24.92;53.17;101197.94;5104501;28;19961;-46
2023/06/18 12:04:19;;;;;;;;;;;;;;;25.00;54.13;101185.47;5117390;27;20352;-45
2023/06/18 12:06:46;;;;;;;;;;;;;;;25.06;52.23;101185.34;5109018;27;19924;-45
2023/06/18 12:09:11;;;;;;;;;;;;;;;24.91;50.97;101176.94;5113060;27;19915;-48
2023/06/18 12:11:36;;;;;;;;;;;;;;;24.75;53.10;101171.22;5120231;27;19965;-48
2023/06/18 12:14:06;;;;;;;;;;;;;;;24.72;52.03;101166.91;5117490;27;19915;-46
2023/06/18 12:16:32;;;;;;;;;;;;;;;24.81;51.65;101164.06;5112070;28;19915;-45
2023/06/18 12:19:01;;;;;;;;;;;;;;;24.88;52.82;101159.50;5111916;27;19911;-48
2023/06/18 12:21:27;;;;;;;;;;;;;;;25.03;53.34;101169.59;5117015;27;19916;-49
2023/06/18 12:23:53;;;;;;;;;;;;;;;25.08;52.51;101167.75;5116951;27;19920;-48
2023/06/18 12:26:18;;;;;;;;;;;;;;;25.13;52.96;101157.09;5088155;28;19942;-46
2023/06/18 12:28:44;;;;;;;;;;;;;;;25.18;53.44;101156.94;5116513;27;19915;-47
2023/06/18 12:31:09;;;;;;;;;;;;;;;25.19;52.11;101154.28;5112540;28;19915;-45